Capitol Logistics 315




KSAN
San Diego International Airport
San Diego, California
KMIA
Miami International Airport
Miami, Florida

Activity Log

Date Flight Route Aircraft Duration
No Flights Yet

Route Details

Aircraft Information
Group: North America Fleet
Types: B738,B752,B762,B763
Route Data
Demand: L
Distance: 1969nm
Duration: 4h 28m
Recm'd Route: ZZOOO2 IPL J2 GBN J50 ELP J86 LEV Y290 BLVNS Y290 BUNNZ Y290 GAWKS FROGZ1
Origin Wx: KSAN 272051Z 28009KT 240V310 10SM CLR 19/12 A3005 RMK AO2 SLP174 T01890117 58011
Dest. Wx: KMIA 272053Z 13012KT 10SM FEW035 SCT050 SCT250 30/23 A2996 RMK AO2 LTG DSNT W SLP146 CB DSNT W-NW T03000233 58016 $
Notes:

Financial History
Total Freight: 0lbs
Average Load: 0lbs/flt
Fuel Used: 0lbs
Avg. Fuel Used: 0lbs/flt
Fuel Expense: $0
Avg. Fuel Expense: $0
Avg. Fuel Cost: $0/lbs
Total Gross Income: $0
Pilot Pay: $0
Total Expenses: $0
Total Revenue: $0
Average Revenue: $0